sensor_id;sensor_type;location;lat;lon;timestamp;pressure;altitude;pressure_sealevel;temperature;humidity
58473;BME280;44775;51.564;5.460;2023-02-15T00:01:48;102632.13;;;0.42;100.00
58473;BME280;44775;51.564;5.460;2023-02-15T00:04:15;102629.81;;;0.34;100.00
58473;BME280;44775;51.564;5.460;2023-02-15T00:06:41;102634.19;;;0.34;100.00
58473;BME280;44775;51.564;5.460;2023-02-15T00:09:06;102642.97;;;0.34;100.00
58473;BME280;44775;51.564;5.460;2023-02-15T00:11:33;102632.19;;;0.40;100.00
58473;BME280;44775;51.564;5.460;2023-02-15T00:16:31;102626.41;;;0.54;100.00
58473;BME280;44775;51.564;5.460;2023-02-15T00:18:57;102629.31;;;0.46;100.00
58473;BME280;44775;51.564;5.460;2023-02-15T00:21:27;102617.09;;;0.45;100.00
58473;BME280;44775;51.564;5.460;2023-02-15T00:23:52;102623.56;;;0.37;100.00
58473;BME280;44775;51.564;5.460;2023-02-15T00:26:17;102613.56;;;0.23;100.00
58473;BME280;44775;51.564;5.460;2023-02-15T00:28:43;102613.00;;;0.15;100.00
58473;BME280;44775;51.564;5.460;2023-02-15T00:31:09;102609.69;;;0.10;100.00
58473;BME280;44775;51.564;5.460;2023-02-15T00:33:36;102606.28;;;0.08;100.00
58473;BME280;44775;51.564;5.460;2023-02-15T00:36:03;102609.75;;;0.08;100.00
58473;BME280;44775;51.564;5.460;2023-02-15T00:38:30;102601.97;;;0.05;100.00
58473;BME280;44775;51.564;5.460;2023-02-15T00:40:57;102604.91;;;-0.03;100.00
58473;BME280;44775;51.564;5.460;2023-02-15T00:43:24;102600.63;;;-0.05;100.00
58473;BME280;44775;51.564;5.460;2023-02-15T00:45:49;102596.44;;;-0.11;100.00
58473;BME280;44775;51.564;5.460;2023-02-15T00:48:15;102597.06;;;-0.04;100.00
58473;BME280;44775;51.564;5.460;2023-02-15T00:50:40;102590.84;;;-0.02;100.00
58473;BME280;44775;51.564;5.460;2023-02-15T00:53:06;102590.81;;;0.00;100.00
58473;BME280;44775;51.564;5.460;2023-02-15T00:55:31;102580.34;;;-0.02;100.00
58473;BME280;44775;51.564;5.460;2023-02-15T00:57:57;102584.63;;;0.01;100.00
58473;BME280;44775;51.564;5.460;2023-02-15T01:00:22;102580.41;;;-0.03;100.00
58473;BME280;44775;51.564;5.460;2023-02-15T01:02:48;102582.03;;;-0.01;100.00
58473;BME280;44775;51.564;5.460;2023-02-15T01:05:13;102572.44;;;-0.02;100.00
58473;BME280;44775;51.564;5.460;2023-02-15T01:07:39;102579.03;;;0.10;100.00
58473;BME280;44775;51.564;5.460;2023-02-15T01:10:06;102577.34;;;0.08;100.00
58473;BME280;44775;51.564;5.460;2023-02-15T01:12:32;102575.94;;;-0.01;100.00
58473;BME280;44775;51.564;5.460;2023-02-15T01:14:58;102569.94;;;-0.05;100.00
58473;BME280;44775;51.564;5.460;2023-02-15T01:17:23;102569.25;;;-0.10;100.00
58473;BME280;44775;51.564;5.460;2023-02-15T01:19:49;102561.41;;;-0.11;100.00
58473;BME280;44775;51.564;5.460;2023-02-15T01:22:14;102570.22;;;-0.12;100.00
58473;BME280;44775;51.564;5.460;2023-02-15T01:24:40;102560.38;;;-0.07;100.00
58473;BME280;44775;51.564;5.460;2023-02-15T01:27:05;102567.59;;;-0.12;100.00
58473;BME280;44775;51.564;5.460;2023-02-15T01:29:31;102560.88;;;-0.19;100.00
58473;BME280;44775;51.564;5.460;2023-02-15T01:31:56;102555.72;;;-0.22;100.00
58473;BME280;44775;51.564;5.460;2023-02-15T01:34:21;102550.25;;;-0.16;100.00
58473;BME280;44775;51.564;5.460;2023-02-15T01:36:47;102554.38;;;-0.11;100.00
58473;BME280;44775;51.564;5.460;2023-02-15T01:39:13;102554.56;;;-0.15;100.00
58473;BME280;44775;51.564;5.460;2023-02-15T01:41:38;102547.50;;;-0.13;100.00
58473;BME280;44775;51.564;5.460;2023-02-15T01:47:09;102541.88;;;-0.28;100.00
58473;BME280;44775;51.564;5.460;2023-02-15T01:49:35;102549.94;;;-0.32;100.00
58473;BME280;44775;51.564;5.460;2023-02-15T01:52:01;102545.88;;;-0.41;100.00
58473;BME280;44775;51.564;5.460;2023-02-15T01:54:32;102556.44;;;-0.42;100.00
58473;BME280;44775;51.564;5.460;2023-02-15T01:57:14;102545.41;;;-0.52;100.00
58473;BME280;44775;51.564;5.460;2023-02-15T01:59:42;102547.38;;;-0.57;100.00
58473;BME280;44775;51.564;5.460;2023-02-15T02:02:09;102531.22;;;-0.72;100.00
58473;BME280;44775;51.564;5.460;2023-02-15T02:04:48;102537.78;;;-0.83;100.00
58473;BME280;44775;51.564;5.460;2023-02-15T02:07:16;102533.38;;;-0.83;100.00
58473;BME280;44775;51.564;5.460;2023-02-15T02:09:43;102535.09;;;-0.82;100.00
58473;BME280;44775;51.564;5.460;2023-02-15T02:12:09;102524.44;;;-0.77;100.00
58473;BME280;44775;51.564;5.460;2023-02-15T02:14:36;102531.72;;;-0.85;100.00
58473;BME280;44775;51.564;5.460;2023-02-15T02:17:09;102509.59;;;-1.03;100.00
58473;BME280;44775;51.564;5.460;2023-02-15T02:23:03;102522.34;;;-0.92;100.00
58473;BME280;44775;51.564;5.460;2023-02-15T02:28:34;102512.50;;;-0.86;100.00
58473;BME280;44775;51.564;5.460;2023-02-15T02:37:03;102501.94;;;-1.09;100.00
58473;BME280;44775;51.564;5.460;2023-02-15T02:39:46;102505.75;;;-1.18;100.00
58473;BME280;44775;51.564;5.460;2023-02-15T02:46:00;102498.72;;;-1.17;100.00
58473;BME280;44775;51.564;5.460;2023-02-15T02:48:03;102492.56;;;-1.16;100.00
58473;BME280;44775;51.564;5.460;2023-02-15T02:50:30;102492.56;;;-1.16;100.00
58473;BME280;44775;51.564;5.460;2023-02-15T02:52:58;102491.75;;;-1.19;100.00
58473;BME280;44775;51.564;5.460;2023-02-15T02:55:31;102489.19;;;-1.20;100.00
58473;BME280;44775;51.564;5.460;2023-02-15T02:58:14;102479.72;;;-1.24;100.00
58473;BME280;44775;51.564;5.460;2023-02-15T03:03:30;102475.53;;;-1.30;100.00
58473;BME280;44775;51.564;5.460;2023-02-15T03:06:00;102484.31;;;-1.31;100.00
58473;BME280;44775;51.564;5.460;2023-02-15T03:08:27;102482.38;;;-1.26;100.00
58473;BME280;44775;51.564;5.460;2023-02-15T03:10:59;102472.75;;;-1.25;100.00
58473;BME280;44775;51.564;5.460;2023-02-15T03:13:25;102480.97;;;-1.36;100.00
58473;BME280;44775;51.564;5.460;2023-02-15T03:15:52;102473.19;;;-1.37;100.00
58473;BME280;44775;51.564;5.460;2023-02-15T03:18:41;102468.31;;;-1.48;100.00
58473;BME280;44775;51.564;5.460;2023-02-15T03:21:09;102462.59;;;-1.61;100.00
58473;BME280;44775;51.564;5.460;2023-02-15T03:23:48;102464.50;;;-1.66;100.00
58473;BME280;44775;51.564;5.460;2023-02-15T03:26:13;102467.44;;;-1.75;100.00
58473;BME280;44775;51.564;5.460;2023-02-15T03:28:42;102466.72;;;-1.80;100.00
58473;BME280;44775;51.564;5.460;2023-02-15T03:31:12;102460.81;;;-1.87;100.00
58473;BME280;44775;51.564;5.460;2023-02-15T03:33:44;102448.91;;;-1.97;100.00
58473;BME280;44775;51.564;5.460;2023-02-15T03:36:29;102456.75;;;-1.96;100.00
58473;BME280;44775;51.564;5.460;2023-02-15T03:39:10;102452.03;;;-1.86;100.00
58473;BME280;44775;51.564;5.460;2023-02-15T03:41:45;102446.41;;;-1.74;100.00
58473;BME280;44775;51.564;5.460;2023-02-15T03:44:20;102454.88;;;-1.66;100.00
58473;BME280;44775;51.564;5.460;2023-02-15T03:46:53;102445.50;;;-1.73;100.00
58473;BME280;44775;51.564;5.460;2023-02-15T03:49:28;102452.38;;;-1.69;100.00
58473;BME280;44775;51.564;5.460;2023-02-15T03:52:00;102441.75;;;-1.66;100.00
58473;BME280;44775;51.564;5.460;2023-02-15T03:54:30;102448.66;;;-1.61;100.00
58473;BME280;44775;51.564;5.460;2023-02-15T03:57:20;102445.03;;;-1.59;100.00
58473;BME280;44775;51.564;5.460;2023-02-15T04:00:25;102445.59;;;-1.49;100.00
58473;BME280;44775;51.564;5.460;2023-02-15T04:05:42;102437.22;;;-1.34;100.00
58473;BME280;44775;51.564;5.460;2023-02-15T04:08:08;102437.22;;;-1.34;100.00
58473;BME280;44775;51.564;5.460;2023-02-15T04:10:34;102444.72;;;-1.23;100.00
58473;BME280;44775;51.564;5.460;2023-02-15T04:13:19;102440.09;;;-1.16;100.00
58473;BME280;44775;51.564;5.460;2023-02-15T04:15:45;102434.66;;;-1.10;100.00
58473;BME280;44775;51.564;5.460;2023-02-15T04:18:30;102449.47;;;-1.09;100.00
58473;BME280;44775;51.564;5.460;2023-02-15T04:21:15;102440.53;;;-1.04;100.00
58473;BME280;44775;51.564;5.460;2023-02-15T04:23:58;102446.63;;;-1.03;100.00
58473;BME280;44775;51.564;5.460;2023-02-15T04:26:42;102429.22;;;-1.06;100.00
58473;BME280;44775;51.564;5.460;2023-02-15T04:29:08;102439.50;;;-1.00;100.00
58473;BME280;44775;51.564;5.460;2023-02-15T04:31:33;102444.19;;;-1.08;100.00
58473;BME280;44775;51.564;5.460;2023-02-15T04:33:59;102445.06;;;-1.09;100.00
58473;BME280;44775;51.564;5.460;2023-02-15T04:36:24;102444.44;;;-1.15;100.00
58473;BME280;44775;51.564;5.460;2023-02-15T04:38:49;102443.44;;;-1.11;100.00
58473;BME280;44775;51.564;5.460;2023-02-15T04:41:15;102445.91;;;-1.08;100.00
58473;BME280;44775;51.564;5.460;2023-02-15T04:43:40;102442.31;;;-1.04;100.00
58473;BME280;44775;51.564;5.460;2023-02-15T04:46:06;102444.84;;;-1.03;100.00
58473;BME280;44775;51.564;5.460;2023-02-15T04:48:31;102436.25;;;-1.06;100.00
58473;BME280;44775;51.564;5.460;2023-02-15T04:50:56;102426.03;;;-1.14;100.00
58473;BME280;44775;51.564;5.460;2023-02-15T04:53:22;102431.00;;;-1.06;100.00
58473;BME280;44775;51.564;5.460;2023-02-15T04:55:47;102418.94;;;-1.12;100.00
58473;BME280;44775;51.564;5.460;2023-02-15T04:58:13;102422.56;;;-1.14;100.00
58473;BME280;44775;51.564;5.460;2023-02-15T05:00:38;102419.22;;;-1.20;100.00
58473;BME280;44775;51.564;5.460;2023-02-15T05:03:04;102418.47;;;-1.23;100.00
58473;BME280;44775;51.564;5.460;2023-02-15T05:05:29;102409.53;;;-1.17;100.00
58473;BME280;44775;51.564;5.460;2023-02-15T05:07:55;102409.59;;;-1.19;100.00
58473;BME280;44775;51.564;5.460;2023-02-15T05:10:20;102412.72;;;-1.09;100.00
58473;BME280;44775;51.564;5.460;2023-02-15T05:12:46;102406.47;;;-1.05;100.00
58473;BME280;44775;51.564;5.460;2023-02-15T05:15:11;102400.38;;;-1.06;100.00
58473;BME280;44775;51.564;5.460;2023-02-15T05:17:37;102409.91;;;-1.03;100.00
58473;BME280;44775;51.564;5.460;2023-02-15T05:20:03;102416.00;;;-1.03;100.00
58473;BME280;44775;51.564;5.460;2023-02-15T05:22:29;102410.81;;;-1.04;100.00
58473;BME280;44775;51.564;5.460;2023-02-15T05:24:55;102413.56;;;-1.07;100.00
58473;BME280;44775;51.564;5.460;2023-02-15T05:27:38;102397.06;;;-1.11;100.00
58473;BME280;44775;51.564;5.460;2023-02-15T05:30:23;102405.91;;;-1.13;100.00
58473;BME280;44775;51.564;5.460;2023-02-15T05:32:48;102415.34;;;-1.09;100.00
58473;BME280;44775;51.564;5.460;2023-02-15T05:35:17;102417.13;;;-1.10;100.00
58473;BME280;44775;51.564;5.460;2023-02-15T05:37:43;102411.59;;;-1.02;100.00
58473;BME280;44775;51.564;5.460;2023-02-15T05:40:09;102418.06;;;-1.11;100.00
58473;BME280;44775;51.564;5.460;2023-02-15T05:42:34;102409.19;;;-1.08;100.00
58473;BME280;44775;51.564;5.460;2023-02-15T05:45:00;102409.38;;;-1.13;100.00
58473;BME280;44775;51.564;5.460;2023-02-15T05:47:25;102399.72;;;-1.12;100.00
58473;BME280;44775;51.564;5.460;2023-02-15T05:49:51;102405.72;;;-1.09;100.00
58473;BME280;44775;51.564;5.460;2023-02-15T05:52:16;102409.09;;;-1.05;100.00
58473;BME280;44775;51.564;5.460;2023-02-15T05:54:42;102402.34;;;-1.12;100.00
58473;BME280;44775;51.564;5.460;2023-02-15T05:57:07;102398.25;;;-1.20;100.00
58473;BME280;44775;51.564;5.460;2023-02-15T05:59:33;102402.47;;;-1.15;100.00
58473;BME280;44775;51.564;5.460;2023-02-15T06:01:58;102402.81;;;-1.25;100.00
58473;BME280;44775;51.564;5.460;2023-02-15T06:04:24;102407.03;;;-1.21;100.00
58473;BME280;44775;51.564;5.460;2023-02-15T06:06:49;102401.78;;;-1.21;100.00
58473;BME280;44775;51.564;5.460;2023-02-15T06:09:15;102405.63;;;-1.31;100.00
58473;BME280;44775;51.564;5.460;2023-02-15T06:11:43;102404.25;;;-1.41;100.00
58473;BME280;44775;51.564;5.460;2023-02-15T06:14:09;102415.41;;;-1.36;100.00
58473;BME280;44775;51.564;5.460;2023-02-15T06:16:34;102415.69;;;-1.44;100.00
58473;BME280;44775;51.564;5.460;2023-02-15T06:19:00;102406.16;;;-1.46;100.00
58473;BME280;44775;51.564;5.460;2023-02-15T06:21:26;102416.84;;;-1.52;100.00
58473;BME280;44775;51.564;5.460;2023-02-15T06:23:52;102419.63;;;-1.57;100.00
58473;BME280;44775;51.564;5.460;2023-02-15T06:26:17;102403.84;;;-1.55;100.00
58473;BME280;44775;51.564;5.460;2023-02-15T06:28:42;102417.78;;;-1.53;100.00
58473;BME280;44775;51.564;5.460;2023-02-15T06:31:08;102403.06;;;-1.57;100.00
58473;BME280;44775;51.564;5.460;2023-02-15T06:33:33;102414.41;;;-1.57;100.00
58473;BME280;44775;51.564;5.460;2023-02-15T06:35:59;102415.44;;;-1.62;100.00
58473;BME280;44775;51.564;5.460;2023-02-15T06:38:24;102404.66;;;-1.53;100.00
58473;BME280;44775;51.564;5.460;2023-02-15T06:40:50;102404.63;;;-1.52;100.00
58473;BME280;44775;51.564;5.460;2023-02-15T06:43:15;102410.06;;;-1.58;100.00
58473;BME280;44775;51.564;5.460;2023-02-15T06:45:41;102400.53;;;-1.60;100.00
58473;BME280;44775;51.564;5.460;2023-02-15T06:48:06;102405.31;;;-1.47;100.00
58473;BME280;44775;51.564;5.460;2023-02-15T06:50:33;102400.28;;;-1.53;100.00
58473;BME280;44775;51.564;5.460;2023-02-15T06:52:59;102400.22;;;-1.51;100.00
58473;BME280;44775;51.564;5.460;2023-02-15T06:55:25;102394.94;;;-1.50;100.00
58473;BME280;44775;51.564;5.460;2023-02-15T06:57:50;102393.88;;;-1.44;100.00
58473;BME280;44775;51.564;5.460;2023-02-15T07:00:16;102390.22;;;-1.40;100.00
58473;BME280;44775;51.564;5.460;2023-02-15T07:02:43;102383.91;;;-1.34;100.00
58473;BME280;44775;51.564;5.460;2023-02-15T07:05:08;102379.63;;;-1.37;100.00
58473;BME280;44775;51.564;5.460;2023-02-15T07:07:34;102388.41;;;-1.38;100.00
58473;BME280;44775;51.564;5.460;2023-02-15T07:09:59;102378.88;;;-1.40;100.00
58473;BME280;44775;51.564;5.460;2023-02-15T07:12:25;102380.00;;;-1.48;100.00
58473;BME280;44775;51.564;5.460;2023-02-15T07:15:17;102363.66;;;-1.56;100.00
58473;BME280;44775;51.564;5.460;2023-02-15T07:17:43;102380.00;;;-1.48;100.00
58473;BME280;44775;51.564;5.460;2023-02-15T07:20:15;102382.66;;;-1.49;100.00
58473;BME280;44775;51.564;5.460;2023-02-15T07:22:41;102373.00;;;-1.47;100.00
58473;BME280;44775;51.564;5.460;2023-02-15T07:25:09;102378.03;;;-1.41;100.00
58473;BME280;44775;51.564;5.460;2023-02-15T07:27:35;102378.72;;;-1.36;100.00
58473;BME280;44775;51.564;5.460;2023-02-15T07:30:01;102382.03;;;-1.31;100.00
58473;BME280;44775;51.564;5.460;2023-02-15T07:32:30;102380.06;;;-1.24;100.00
58473;BME280;44775;51.564;5.460;2023-02-15T07:34:56;102373.78;;;-1.20;100.00
58473;BME280;44775;51.564;5.460;2023-02-15T07:37:22;102371.81;;;-1.15;100.00
58473;BME280;44775;51.564;5.460;2023-02-15T07:39:48;102377.66;;;-1.07;100.00
58473;BME280;44775;51.564;5.460;2023-02-15T07:42:13;102367.75;;;-0.99;100.00
58473;BME280;44775;51.564;5.460;2023-02-15T07:44:38;102368.53;;;-0.97;100.00
58473;BME280;44775;51.564;5.460;2023-02-15T07:47:04;102372.53;;;-0.86;100.00
58473;BME280;44775;51.564;5.460;2023-02-15T07:49:29;102378.53;;;-0.83;100.00
58473;BME280;44775;51.564;5.460;2023-02-15T07:51:55;102373.94;;;-0.78;100.00
58473;BME280;44775;51.564;5.460;2023-02-15T07:54:20;102375.56;;;-0.74;100.00
58473;BME280;44775;51.564;5.460;2023-02-15T07:56:46;102372.56;;;-0.64;100.00
58473;BME280;44775;51.564;5.460;2023-02-15T07:59:11;102362.63;;;-0.56;100.00
58473;BME280;44775;51.564;5.460;2023-02-15T08:01:38;102356.22;;;-0.49;100.00
58473;BME280;44775;51.564;5.460;2023-02-15T08:04:05;102360.56;;;-0.48;100.00
58473;BME280;44775;51.564;5.460;2023-02-15T08:06:33;102357.78;;;-0.43;100.00
58473;BME280;44775;51.564;5.460;2023-02-15T08:08:59;102358.50;;;-0.40;100.00
58473;BME280;44775;51.564;5.460;2023-02-15T08:11:27;102361.13;;;-0.40;100.00
58473;BME280;44775;51.564;5.460;2023-02-15T08:14:08;102366.06;;;-0.32;100.00
58473;BME280;44775;51.564;5.460;2023-02-15T08:16:42;102369.50;;;-0.30;100.00
58473;BME280;44775;51.564;5.460;2023-02-15T08:19:28;102360.47;;;-0.23;100.00
58473;BME280;44775;51.564;5.460;2023-02-15T08:22:07;102358.13;;;-0.09;100.00
58473;BME280;44775;51.564;5.460;2023-02-15T08:24:33;102358.72;;;-0.02;100.00
58473;BME280;44775;51.564;5.460;2023-02-15T08:26:59;102359.78;;;0.14;100.00
58473;BME280;44775;51.564;5.460;2023-02-15T08:29:28;102362.78;;;0.27;100.00
58473;BME280;44775;51.564;5.460;2023-02-15T08:31:56;102357.06;;;0.38;100.00
58473;BME280;44775;51.564;5.460;2023-02-15T08:34:28;102360.78;;;0.53;100.00
58473;BME280;44775;51.564;5.460;2023-02-15T08:36:54;102357.53;;;0.66;100.00
58473;BME280;44775;51.564;5.460;2023-02-15T08:39:19;102355.00;;;0.84;100.00
58473;BME280;44775;51.564;5.460;2023-02-15T08:41:46;102356.75;;;1.04;100.00
58473;BME280;44775;51.564;5.460;2023-02-15T08:44:12;102346.84;;;1.28;100.00
58473;BME280;44775;51.564;5.460;2023-02-15T08:46:41;102353.19;;;1.42;100.00
58473;BME280;44775;51.564;5.460;2023-02-15T08:49:07;102345.06;;;1.66;100.00
58473;BME280;44775;51.564;5.460;2023-02-15T08:51:36;102347.00;;;1.80;100.00
58473;BME280;44775;51.564;5.460;2023-02-15T08:54:04;102346.72;;;2.03;100.00
58473;BME280;44775;51.564;5.460;2023-02-15T08:56:38;102341.75;;;2.15;100.00
58473;BME280;44775;51.564;5.460;2023-02-15T08:59:05;102336.03;;;2.24;100.00
58473;BME280;44775;51.564;5.460;2023-02-15T09:01:33;102347.47;;;2.57;100.00
58473;BME280;44775;51.564;5.460;2023-02-15T09:04:01;102345.75;;;2.74;100.00
58473;BME280;44775;51.564;5.460;2023-02-15T09:06:28;102346.88;;;2.86;100.00
58473;BME280;44775;51.564;5.460;2023-02-15T09:08:54;102350.28;;;3.03;100.00
58473;BME280;44775;51.564;5.460;2023-02-15T09:11:22;102335.41;;;3.02;100.00
58473;BME280;44775;51.564;5.460;2023-02-15T09:13:59;102334.31;;;3.38;100.00
58473;BME280;44775;51.564;5.460;2023-02-15T09:16:29;102334.91;;;3.59;100.00
58473;BME280;44775;51.564;5.460;2023-02-15T09:18:56;102338.56;;;3.72;100.00
58473;BME280;44775;51.564;5.460;2023-02-15T09:21:27;102337.81;;;4.00;100.00
58473;BME280;44775;51.564;5.460;2023-02-15T09:23:57;102333.28;;;4.33;100.00
58473;BME280;44775;51.564;5.460;2023-02-15T09:26:24;102331.91;;;4.56;100.00
58473;BME280;44775;51.564;5.460;2023-02-15T09:28:55;102334.53;;;4.70;100.00
58473;BME280;44775;51.564;5.460;2023-02-15T09:31:25;102323.44;;;5.20;100.00
58473;BME280;44775;51.564;5.460;2023-02-15T09:33:52;102326.47;;;5.56;100.00
58473;BME280;44775;51.564;5.460;2023-02-15T09:36:26;102322.41;;;5.77;100.00
58473;BME280;44775;51.564;5.460;2023-02-15T09:39:00;102313.69;;;6.02;100.00
58473;BME280;44775;51.564;5.460;2023-02-15T09:50:50;102322.22;;;7.33;100.00
58473;BME280;44775;51.564;5.460;2023-02-15T10:07:04;102342.97;;;9.16;100.00
58473;BME280;44775;51.564;5.460;2023-02-15T10:13:38;102342.50;;;9.65;93.18
58473;BME280;44775;51.564;5.460;2023-02-15T10:15:53;102346.84;;;9.99;95.48
58473;BME280;44775;51.564;5.460;2023-02-15T10:22:20;102340.31;;;10.24;88.01
58473;BME280;44775;51.564;5.460;2023-02-15T10:27:11;102354.22;;;11.21;81.65
58473;BME280;44775;51.564;5.460;2023-02-15T10:29:39;102355.97;;;11.01;75.83
58473;BME280;44775;51.564;5.460;2023-02-15T10:34:48;102350.28;;;11.25;77.39
58473;BME280;44775;51.564;5.460;2023-02-15T10:39:55;102343.38;;;12.01;72.29
58473;BME280;44775;51.564;5.460;2023-02-15T10:50:26;102332.31;;;12.43;69.35
58473;BME280;44775;51.564;5.460;2023-02-15T10:55:59;102336.13;;;12.41;66.62
58473;BME280;44775;51.564;5.460;2023-02-15T11:06:49;102325.78;;;13.30;58.83
58473;BME280;44775;51.564;5.460;2023-02-15T11:09:18;102325.16;;;13.64;58.69
58473;BME280;44775;51.564;5.460;2023-02-15T11:11:48;102317.69;;;13.93;61.49
58473;BME280;44775;51.564;5.460;2023-02-15T11:14:17;102324.59;;;13.78;55.78
58473;BME280;44775;51.564;5.460;2023-02-15T11:16:50;102323.66;;;13.52;56.91
58473;BME280;44775;51.564;5.460;2023-02-15T11:19:22;102323.78;;;13.78;56.64
58473;BME280;44775;51.564;5.460;2023-02-15T11:21:55;102323.66;;;13.52;56.72
58473;BME280;44775;51.564;5.460;2023-02-15T11:24:26;102318.13;;;13.35;56.46
58473;BME280;44775;51.564;5.460;2023-02-15T11:30:06;102310.66;;;13.29;59.62
58473;BME280;44775;51.564;5.460;2023-02-15T11:32:47;102312.66;;;12.99;56.68
58473;BME280;44775;51.564;5.460;2023-02-15T11:40:29;102282.91;;;13.38;57.59
58473;BME280;44775;51.564;5.460;2023-02-15T11:43:03;102280.63;;;13.43;55.32
58473;BME280;44775;51.564;5.460;2023-02-15T11:45:32;102289.38;;;13.81;54.15
58473;BME280;44775;51.564;5.460;2023-02-15T11:48:00;102282.41;;;14.40;52.42
58473;BME280;44775;51.564;5.460;2023-02-15T11:50:29;102281.16;;;14.87;50.34
58473;BME280;44775;51.564;5.460;2023-02-15T11:53:05;102278.13;;;14.82;50.71
58473;BME280;44775;51.564;5.460;2023-02-15T11:55:32;102280.53;;;14.93;50.07
58473;BME280;44775;51.564;5.460;2023-02-15T12:00:52;102272.66;;;15.67;48.96
58473;BME280;44775;51.564;5.460;2023-02-15T12:03:26;102259.47;;;15.39;49.08
58473;BME280;44775;51.564;5.460;2023-02-15T12:06:01;102267.31;;;15.24;48.84
58473;BME280;44775;51.564;5.460;2023-02-15T12:08:43;102263.59;;;15.09;50.27
58473;BME280;44775;51.564;5.460;2023-02-15T12:11:17;102266.50;;;14.81;49.27
58473;BME280;44775;51.564;5.460;2023-02-15T12:14:00;102260.03;;;15.00;50.86
58473;BME280;44775;51.564;5.460;2023-02-15T12:16:27;102251.53;;;15.38;48.09
58473;BME280;44775;51.564;5.460;2023-02-15T12:18:58;102250.88;;;15.60;47.87
58473;BME280;44775;51.564;5.460;2023-02-15T12:21:26;102247.81;;;15.30;48.31
58473;BME280;44775;51.564;5.460;2023-02-15T12:23:55;102251.16;;;15.16;48.74
58473;BME280;44775;51.564;5.460;2023-02-15T12:26:30;102241.78;;;15.37;49.10
58473;BME280;44775;51.564;5.460;2023-02-15T12:28:59;102247.31;;;15.19;48.89
58473;BME280;44775;51.564;5.460;2023-02-15T12:31:36;102236.34;;;15.20;49.29
58473;BME280;44775;51.564;5.460;2023-02-15T12:34:07;102238.03;;;15.21;49.35
58473;BME280;44775;51.564;5.460;2023-02-15T12:36:44;102221.69;;;15.15;49.78
58473;BME280;44775;51.564;5.460;2023-02-15T12:41:38;102229.03;;;15.71;48.22
58473;BME280;44775;51.564;5.460;2023-02-15T12:44:21;102238.59;;;16.15;48.20
58473;BME280;44775;51.564;5.460;2023-02-15T12:46:57;102233.16;;;16.31;47.80
58473;BME280;44775;51.564;5.460;2023-02-15T12:49:23;102227.63;;;16.08;46.46
58473;BME280;44775;51.564;5.460;2023-02-15T12:51:54;102237.72;;;16.31;47.47
58473;BME280;44775;51.564;5.460;2023-02-15T13:00:04;102215.94;;;16.40;45.55
58473;BME280;44775;51.564;5.460;2023-02-15T13:08:17;102202.69;;;16.06;47.00
58473;BME280;44775;51.564;5.460;2023-02-15T13:10:56;102203.09;;;16.42;48.25
58473;BME280;44775;51.564;5.460;2023-02-15T13:13:25;102195.84;;;16.43;45.98
58473;BME280;44775;51.564;5.460;2023-02-15T13:15:54;102190.38;;;16.59;45.76
58473;BME280;44775;51.564;5.460;2023-02-15T13:18:42;102193.72;;;16.69;45.97
58473;BME280;44775;51.564;5.460;2023-02-15T13:21:17;102188.44;;;16.84;45.81
58473;BME280;44775;51.564;5.460;2023-02-15T13:24:22;102188.63;;;16.83;45.19
58473;BME280;44775;51.564;5.460;2023-02-15T13:26:49;102185.75;;;16.84;44.36
58473;BME280;44775;51.564;5.460;2023-02-15T13:29:46;102174.69;;;16.94;44.90
58473;BME280;44775;51.564;5.460;2023-02-15T13:32:28;102173.38;;;16.90;45.37
58473;BME280;44775;51.564;5.460;2023-02-15T13:34:57;102178.34;;;16.78;44.33
58473;BME280;44775;51.564;5.460;2023-02-15T13:37:45;102180.59;;;16.97;46.22
58473;BME280;44775;51.564;5.460;2023-02-15T13:42:52;102178.19;;;16.32;45.40
58473;BME280;44775;51.564;5.460;2023-02-15T13:51:02;102153.22;;;15.33;48.03
58473;BME280;44775;51.564;5.460;2023-02-15T13:57:15;102150.84;;;15.06;49.94
58473;BME280;44775;51.564;5.460;2023-02-15T14:05:32;102155.75;;;15.59;47.87
58473;BME280;44775;51.564;5.460;2023-02-15T14:17:14;102170.19;;;15.99;47.22
58473;BME280;44775;51.564;5.460;2023-02-15T14:19:39;102176.44;;;15.92;47.89
58473;BME280;44775;51.564;5.460;2023-02-15T14:25:15;102172.94;;;15.67;49.42
58473;BME280;44775;51.564;5.460;2023-02-15T14:28:15;102169.72;;;15.55;49.60
58473;BME280;44775;51.564;5.460;2023-02-15T14:30:46;102169.34;;;15.25;49.29
58473;BME280;44775;51.564;5.460;2023-02-15T14:35:51;102176.91;;;14.89;49.94
58473;BME280;44775;51.564;5.460;2023-02-15T14:38:22;102169.63;;;14.81;50.23
58473;BME280;44775;51.564;5.460;2023-02-15T14:40:56;102178.31;;;14.59;50.77
58473;BME280;44775;51.564;5.460;2023-02-15T14:46:33;102172.94;;;14.33;51.52
58473;BME280;44775;51.564;5.460;2023-02-15T14:49:15;102173.03;;;14.15;52.36
58473;BME280;44775;51.564;5.460;2023-02-15T14:56:43;102172.63;;;14.02;53.29
58473;BME280;44775;51.564;5.460;2023-02-15T15:01:38;102171.78;;;13.75;53.69
58473;BME280;44775;51.564;5.460;2023-02-15T15:04:23;102168.38;;;13.73;54.97
58473;BME280;44775;51.564;5.460;2023-02-15T15:07:00;102168.28;;;13.57;55.12
58473;BME280;44775;51.564;5.460;2023-02-15T15:09:29;102173.75;;;13.47;55.19
58473;BME280;44775;51.564;5.460;2023-02-15T15:14:48;102172.34;;;13.43;54.55
58473;BME280;44775;51.564;5.460;2023-02-15T15:20:05;102171.47;;;13.34;54.35
58473;BME280;44775;51.564;5.460;2023-02-15T15:22:36;102166.59;;;13.20;54.81
58473;BME280;44775;51.564;5.460;2023-02-15T15:25:12;102163.81;;;13.12;54.98
58473;BME280;44775;51.564;5.460;2023-02-15T15:27:56;102156.91;;;12.91;55.39
58473;BME280;44775;51.564;5.460;2023-02-15T15:35:55;102154.91;;;12.48;57.79
58473;BME280;44775;51.564;5.460;2023-02-15T15:47:36;102153.16;;;12.01;60.83
58473;BME280;44775;51.564;5.460;2023-02-15T15:50:17;102153.16;;;12.01;61.23
58473;BME280;44775;51.564;5.460;2023-02-15T15:52:47;102141.19;;;11.96;61.47